Time;durP1;ratioP1;P1;durP2;ratioP2;P2;SDS_P1;SDS_P2;PMS_P1;PMS_P2;Temp;Humidity;BMP_temperature;BMP_pressure;BME280_temperature;BME280_humidity;BME280_pressure;Samples;Min_cycle;Max_cycle;Signal;HPM_P1;HPM_P2
2023/12/16 00:02:13;;;;;;;7.55;6.55;;;;;;;;;;4978417;28;20034;-70
2023/12/16 00:04:40;;;;;;;9.65;7.53;;;;;;;;;;4986309;28;20089;-72
2023/12/16 00:07:05;;;;;;;12.98;8.77;;;;;;;;;;4986381;28;20026;-71
2023/12/16 00:09:31;;;;;;;11.07;9.75;;;;;;;;;;4986017;28;20133;-72
2023/12/16 00:11:56;;;;;;;6.95;6.18;;;;;;;;;;4976318;28;20069;-71
2023/12/16 00:14:21;;;;;;;8.95;6.85;;;;;;;;;;4988480;28;20461;-72
2023/12/16 00:16:47;;;;;;;10.82;7.63;;;;;;;;;;4973027;28;20716;-71
2023/12/16 00:19:12;;;;;;;9.27;6.60;;;;;;;;;;4988059;28;20036;-71
2023/12/16 00:21:37;;;;;;;9.75;7.25;;;;;;;;;;4975591;28;20089;-70
2023/12/16 00:24:04;;;;;;;8.40;7.25;;;;;;;;;;4982392;28;20509;-70
2023/12/16 00:26:29;;;;;;;7.28;6.50;;;;;;;;;;4987884;28;20092;-70
2023/12/16 00:28:54;;;;;;;6.45;5.22;;;;;;;;;;4985846;28;20042;-70
2023/12/16 00:31:20;;;;;;;5.43;4.80;;;;;;;;;;4981543;28;20022;-71
2023/12/16 00:33:45;;;;;;;4.47;3.60;;;;;;;;;;4976539;28;20062;-72
2023/12/16 00:36:11;;;;;;;2.72;2.33;;;;;;;;;;4987738;28;20029;-71
2023/12/16 00:38:36;;;;;;;2.83;2.53;;;;;;;;;;4986443;28;21239;-71
2023/12/16 00:41:01;;;;;;;2.13;1.92;;;;;;;;;;4987617;28;20455;-69
2023/12/16 00:43:27;;;;;;;2.17;2.03;;;;;;;;;;4986736;28;20045;-69
2023/12/16 00:45:52;;;;;;;3.08;2.80;;;;;;;;;;4985713;28;20031;-69
2023/12/16 00:48:17;;;;;;;3.80;3.50;;;;;;;;;;4986395;28;20397;-71
2023/12/16 00:50:43;;;;;;;5.75;5.05;;;;;;;;;;4987045;28;20018;-72
2023/12/16 00:53:08;;;;;;;7.82;4.07;;;;;;;;;;4978047;28;20169;-71
2023/12/16 00:55:33;;;;;;;8.18;5.72;;;;;;;;;;4982431;28;20037;-71
2023/12/16 00:57:58;;;;;;;7.93;5.00;;;;;;;;;;4986772;28;20117;-71
2023/12/16 01:00:24;;;;;;;7.00;5.15;;;;;;;;;;4988396;28;20128;-71
2023/12/16 01:02:49;;;;;;;8.10;6.47;;;;;;;;;;4988721;28;20030;-70
2023/12/16 01:05:15;;;;;;;7.45;5.75;;;;;;;;;;4988015;28;20110;-73
2023/12/16 01:07:40;;;;;;;8.20;6.05;;;;;;;;;;4985512;28;20092;-71
2023/12/16 01:10:05;;;;;;;4.97;4.30;;;;;;;;;;4986728;28;20066;-71
2023/12/16 01:12:31;;;;;;;4.75;4.10;;;;;;;;;;4986661;28;20057;-71
2023/12/16 01:14:56;;;;;;;6.13;4.78;;;;;;;;;;4980279;28;20033;-72
2023/12/16 01:17:21;;;;;;;6.50;4.72;;;;;;;;;;4972040;28;20052;-72
2023/12/16 01:19:47;;;;;;;6.95;5.07;;;;;;;;;;4971835;28;20057;-70
2023/12/16 01:22:13;;;;;;;5.68;3.83;;;;;;;;;;4985721;28;20034;-70
2023/12/16 01:24:38;;;;;;;5.63;4.75;;;;;;;;;;4987330;28;20038;-71
2023/12/16 01:27:04;;;;;;;4.55;3.58;;;;;;;;;;4988613;28;20040;-71
2023/12/16 01:29:29;;;;;;;4.55;3.80;;;;;;;;;;4984146;28;20040;-72
2023/12/16 01:31:54;;;;;;;4.65;3.53;;;;;;;;;;4969382;28;20033;-71
2023/12/16 01:34:20;;;;;;;4.28;3.65;;;;;;;;;;4986021;28;20026;-71
2023/12/16 01:36:46;;;;;;;4.75;3.72;;;;;;;;;;4986228;28;20040;-73
2023/12/16 01:39:11;;;;;;;2.80;2.60;;;;;;;;;;4988660;28;20376;-73
2023/12/16 01:41:36;;;;;;;2.50;2.30;;;;;;;;;;4987190;28;20092;-73
2023/12/16 01:44:02;;;;;;;2.30;2.10;;;;;;;;;;4986806;28;20026;-73
2023/12/16 01:46:28;;;;;;;3.10;2.80;;;;;;;;;;4983940;28;20045;-71
2023/12/16 01:48:54;;;;;;;2.40;2.20;;;;;;;;;;4986203;28;20023;-71
2023/12/16 01:51:19;;;;;;;4.03;3.33;;;;;;;;;;4985944;28;20756;-72
2023/12/16 01:53:45;;;;;;;2.92;2.63;;;;;;;;;;4986322;28;20030;-72
2023/12/16 01:56:11;;;;;;;2.00;1.80;;;;;;;;;;4987419;28;20030;-70
2023/12/16 01:58:37;;;;;;;2.90;2.70;;;;;;;;;;4986414;28;20480;-71
2023/12/16 02:01:03;;;;;;;3.30;3.00;;;;;;;;;;4985904;28;20042;-70
2023/12/16 02:03:29;;;;;;;1.90;1.80;;;;;;;;;;4986849;28;20168;-70
2023/12/16 02:05:55;;;;;;;2.45;2.25;;;;;;;;;;4986201;28;20027;-70
2023/12/16 02:08:20;;;;;;;2.83;2.63;;;;;;;;;;4985469;28;20477;-70
2023/12/16 02:10:45;;;;;;;1.65;1.55;;;;;;;;;;4987110;28;20061;-70
2023/12/16 02:13:11;;;;;;;1.70;1.60;;;;;;;;;;4984981;28;20022;-72
2023/12/16 02:15:36;;;;;;;1.77;1.67;;;;;;;;;;4985953;28;20030;-74
2023/12/16 02:18:01;;;;;;;2.35;2.15;;;;;;;;;;4985191;28;20382;-69
2023/12/16 02:20:27;;;;;;;1.98;1.77;;;;;;;;;;4986588;28;20100;-72
2023/12/16 02:22:54;;;;;;;1.63;1.52;;;;;;;;;;4986158;28;20032;-71
2023/12/16 02:25:19;;;;;;;1.80;1.70;;;;;;;;;;4973508;28;20036;-72
2023/12/16 02:27:45;;;;;;;3.10;2.80;;;;;;;;;;4977286;28;20030;-71
2023/12/16 02:30:11;;;;;;;3.47;3.17;;;;;;;;;;4985308;28;20017;-71
2023/12/16 02:32:36;;;;;;;4.25;3.33;;;;;;;;;;4985789;28;20069;-72
2023/12/16 02:35:01;;;;;;;3.30;3.00;;;;;;;;;;4985281;28;20469;-72
2023/12/16 02:37:27;;;;;;;3.03;2.72;;;;;;;;;;4985808;28;20037;-72
2023/12/16 02:39:52;;;;;;;2.65;2.42;;;;;;;;;;4988643;28;20042;-71
2023/12/16 02:42:17;;;;;;;5.07;4.13;;;;;;;;;;4986829;28;20357;-72
2023/12/16 02:44:43;;;;;;;4.10;3.38;;;;;;;;;;4985236;28;20036;-70
2023/12/16 02:47:08;;;;;;;3.25;2.95;;;;;;;;;;4989189;28;20125;-71
2023/12/16 02:49:34;;;;;;;2.83;2.40;;;;;;;;;;4981817;28;20034;-71
2023/12/16 02:51:59;;;;;;;2.50;2.30;;;;;;;;;;4983955;28;20158;-70
2023/12/16 02:54:25;;;;;;;11.02;7.82;;;;;;;;;;4987668;28;20065;-71
2023/12/16 02:56:51;;;;;;;4.70;3.55;;;;;;;;;;4988392;28;20022;-73
2023/12/16 02:59:16;;;;;;;3.05;2.53;;;;;;;;;;4990586;28;20022;-73
2023/12/16 03:01:41;;;;;;;2.58;2.22;;;;;;;;;;4988394;28;20030;-70
2023/12/16 03:04:07;;;;;;;3.60;2.90;;;;;;;;;;4989060;28;20026;-71
2023/12/16 03:06:32;;;;;;;8.98;6.50;;;;;;;;;;4990798;28;20042;-71
2023/12/16 03:08:57;;;;;;;3.38;2.30;;;;;;;;;;4989661;28;20050;-71
2023/12/16 03:11:23;;;;;;;2.92;2.25;;;;;;;;;;4989031;28;20026;-73
2023/12/16 03:13:48;;;;;;;3.10;2.80;;;;;;;;;;4990514;28;20045;-71
2023/12/16 03:16:14;;;;;;;3.83;2.97;;;;;;;;;;4988132;28;20422;-73
2023/12/16 03:18:39;;;;;;;2.08;1.70;;;;;;;;;;4990554;28;20038;-71
2023/12/16 03:21:07;;;;;;;1.63;1.52;;;;;;;;;;4989278;28;20353;-71
2023/12/16 03:23:33;;;;;;;1.42;1.33;;;;;;;;;;4987381;28;20037;-70
2023/12/16 03:25:58;;;;;;;1.52;1.42;;;;;;;;;;4988921;28;20034;-72
2023/12/16 03:28:24;;;;;;;3.50;2.70;;;;;;;;;;4972604;28;20908;-73
2023/12/16 03:30:49;;;;;;;1.42;1.33;;;;;;;;;;4977276;28;20060;-72
2023/12/16 03:33:14;;;;;;;1.60;1.50;;;;;;;;;;4984015;28;20022;-72
2023/12/16 03:35:40;;;;;;;1.58;1.48;;;;;;;;;;4981823;28;20193;-72
2023/12/16 03:38:05;;;;;;;2.33;2.13;;;;;;;;;;4988980;28;20161;-72
2023/12/16 03:40:30;;;;;;;3.03;2.42;;;;;;;;;;4987745;28;20037;-72
2023/12/16 03:42:56;;;;;;;1.98;1.73;;;;;;;;;;4988457;28;20030;-73
2023/12/16 03:45:22;;;;;;;1.70;1.60;;;;;;;;;;4988207;28;20030;-72
2023/12/16 03:47:47;;;;;;;2.10;2.00;;;;;;;;;;4987109;28;20311;-73
2023/12/16 03:50:13;;;;;;;4.20;3.42;;;;;;;;;;4986546;28;20109;-72
2023/12/16 03:52:38;;;;;;;1.70;1.60;;;;;;;;;;4988248;28;20072;-71
2023/12/16 03:55:04;;;;;;;1.20;1.10;;;;;;;;;;4985772;28;20058;-73
2023/12/16 03:57:30;;;;;;;0.85;0.85;;;;;;;;;;4988187;28;20354;-72
2023/12/16 03:59:56;;;;;;;0.82;0.82;;;;;;;;;;4987162;28;20018;-72
2023/12/16 04:02:22;;;;;;;0.98;0.90;;;;;;;;;;4990153;28;20045;-70
2023/12/16 04:04:47;;;;;;;1.40;1.30;;;;;;;;;;4987003;28;20441;-72
2023/12/16 04:07:12;;;;;;;2.10;1.60;;;;;;;;;;4986667;28;20361;-71
2023/12/16 04:09:39;;;;;;;1.55;1.45;;;;;;;;;;4989733;28;20119;-71
2023/12/16 04:12:04;;;;;;;1.63;1.52;;;;;;;;;;4989672;28;20026;-72
2023/12/16 04:14:30;;;;;;;2.20;2.00;;;;;;;;;;4972587;28;20456;-70
2023/12/16 04:16:55;;;;;;;1.50;1.40;;;;;;;;;;4984932;28;20525;-71
2023/12/16 04:19:20;;;;;;;1.30;1.20;;;;;;;;;;4975560;28;20026;-70
2023/12/16 04:21:46;;;;;;;1.15;1.15;;;;;;;;;;4972611;28;20026;-71
2023/12/16 04:24:11;;;;;;;1.20;1.10;;;;;;;;;;4973515;28;20030;-73
2023/12/16 04:26:36;;;;;;;1.50;1.40;;;;;;;;;;4974585;28;20076;-72
2023/12/16 04:29:02;;;;;;;2.58;2.30;;;;;;;;;;4974964;28;20125;-72
2023/12/16 04:31:27;;;;;;;1.40;1.30;;;;;;;;;;4978528;28;20067;-72
2023/12/16 04:33:55;;;;;;;1.83;1.73;;;;;;;;;;4986250;28;20037;-73
2023/12/16 04:36:20;;;;;;;1.60;1.50;;;;;;;;;;4988336;28;20030;-73
2023/12/16 04:38:46;;;;;;;1.40;1.30;;;;;;;;;;4986394;28;20038;-70
2023/12/16 04:41:14;;;;;;;1.60;1.50;;;;;;;;;;4975390;28;20025;-71
2023/12/16 04:43:40;;;;;;;1.65;1.55;;;;;;;;;;4984807;28;20029;-71
2023/12/16 04:46:05;;;;;;;2.78;1.33;;;;;;;;;;4985449;28;20183;-70
2023/12/16 04:48:31;;;;;;;1.40;1.30;;;;;;;;;;4984670;28;20031;-73
2023/12/16 04:50:56;;;;;;;1.00;1.00;;;;;;;;;;4987564;28;20040;-73
2023/12/16 04:53:22;;;;;;;1.30;1.20;;;;;;;;;;4989843;28;20057;-71
2023/12/16 04:55:47;;;;;;;1.30;1.20;;;;;;;;;;4989400;28;20516;-71
2023/12/16 04:58:12;;;;;;;3.10;2.90;;;;;;;;;;4988961;28;20026;-71
2023/12/16 05:00:38;;;;;;;1.95;1.85;;;;;;;;;;4986953;28;20105;-71
2023/12/16 05:03:03;;;;;;;1.50;1.40;;;;;;;;;;4977786;28;20117;-72
2023/12/16 05:05:29;;;;;;;1.30;1.30;;;;;;;;;;4968749;28;20057;-71
2023/12/16 05:07:54;;;;;;;1.00;1.00;;;;;;;;;;4980006;28;20369;-70
2023/12/16 05:10:19;;;;;;;1.60;1.50;;;;;;;;;;4987886;28;20426;-71
2023/12/16 05:12:45;;;;;;;1.40;1.30;;;;;;;;;;4987036;28;20506;-71
2023/12/16 05:15:10;;;;;;;1.60;1.50;;;;;;;;;;4959528;28;20026;-71
2023/12/16 05:17:36;;;;;;;1.20;1.20;;;;;;;;;;4986022;28;20034;-71
2023/12/16 05:20:01;;;;;;;1.20;1.20;;;;;;;;;;4986514;28;20422;-71
2023/12/16 05:22:27;;;;;;;1.70;1.60;;;;;;;;;;4986513;28;20034;-72
2023/12/16 05:24:52;;;;;;;1.75;1.65;;;;;;;;;;4983119;28;20026;-73
2023/12/16 05:27:17;;;;;;;1.80;1.70;;;;;;;;;;4976326;28;20034;-70
2023/12/16 05:29:43;;;;;;;1.60;1.50;;;;;;;;;;4985149;28;20402;-70
2023/12/16 05:32:08;;;;;;;3.25;2.95;;;;;;;;;;4985146;28;20121;-71
2023/12/16 05:34:33;;;;;;;2.92;2.63;;;;;;;;;;4989190;28;20065;-68
2023/12/16 05:36:59;;;;;;;2.33;2.13;;;;;;;;;;4990036;28;20440;-71
2023/12/16 05:39:26;;;;;;;2.55;2.35;;;;;;;;;;4985327;28;20030;-71
2023/12/16 05:41:51;;;;;;;2.00;1.80;;;;;;;;;;4973590;28;20061;-73
2023/12/16 05:44:17;;;;;;;2.20;2.00;;;;;;;;;;4986585;28;20066;-71
2023/12/16 05:46:42;;;;;;;2.58;2.30;;;;;;;;;;4973285;28;20469;-71
2023/12/16 05:49:07;;;;;;;2.58;2.38;;;;;;;;;;4970468;28;20378;-70
2023/12/16 05:51:39;;;;;;;7.38;6.68;;;;;;;;;;4971477;28;20401;-70
2023/12/16 05:54:06;;;;;;;3.47;3.10;;;;;;;;;;4967143;28;20365;-70
2023/12/16 05:56:31;;;;;;;1.75;1.65;;;;;;;;;;4973409;28;20023;-70
2023/12/16 05:58:56;;;;;;;1.75;1.65;;;;;;;;;;4985155;28;20040;-70
2023/12/16 06:01:22;;;;;;;1.63;1.52;;;;;;;;;;4980655;28;20026;-71
2023/12/16 06:03:47;;;;;;;1.73;1.63;;;;;;;;;;4954882;28;20434;-71
2023/12/16 06:06:15;;;;;;;2.50;2.30;;;;;;;;;;4968787;28;20034;-71
2023/12/16 06:08:41;;;;;;;1.75;1.65;;;;;;;;;;4976116;28;20057;-71
2023/12/16 06:11:09;;;;;;;2.63;2.42;;;;;;;;;;4987507;28;20133;-72
2023/12/16 06:13:35;;;;;;;2.08;1.98;;;;;;;;;;4987932;28;20019;-70
2023/12/16 06:16:00;;;;;;;14.32;5.72;;;;;;;;;;4985837;28;20117;-70
2023/12/16 06:18:25;;;;;;;16.25;13.93;;;;;;;;;;4984755;28;20034;-71
2023/12/16 06:20:51;;;;;;;70.68;53.63;;;;;;;;;;4986885;28;20030;-71
2023/12/16 06:23:16;;;;;;;35.22;31.40;;;;;;;;;;4971516;28;20830;-71
2023/12/16 06:25:42;;;;;;;66.85;53.78;;;;;;;;;;4991053;28;20732;-72
2023/12/16 06:28:07;;;;;;;112.72;76.65;;;;;;;;;;4989094;28;20454;-72
2023/12/16 06:30:33;;;;;;;77.05;58.58;;;;;;;;;;4977136;28;20047;-73
2023/12/16 06:32:59;;;;;;;23.73;20.88;;;;;;;;;;4988035;28;20052;-72
2023/12/16 06:35:24;;;;;;;4.68;4.28;;;;;;;;;;4989975;28;20022;-73
2023/12/16 06:37:50;;;;;;;21.50;19.30;;;;;;;;;;4989150;28;20032;-74
2023/12/16 06:40:15;;;;;;;30.35;27.25;;;;;;;;;;4973261;28;20057;-72
2023/12/16 06:42:40;;;;;;;21.98;19.67;;;;;;;;;;4979231;28;20027;-69
2023/12/16 06:45:06;;;;;;;75.80;67.82;;;;;;;;;;4988156;28;20034;-70
2023/12/16 06:47:31;;;;;;;18.83;17.05;;;;;;;;;;4978331;28;20088;-67
2023/12/16 06:49:57;;;;;;;39.20;35.38;;;;;;;;;;4989988;28;20104;-69
2023/12/16 06:52:22;;;;;;;4.00;3.70;;;;;;;;;;4976998;28;20037;-70
2023/12/16 06:54:47;;;;;;;14.13;12.85;;;;;;;;;;4982304;28;20472;-69
2023/12/16 06:57:13;;;;;;;7.63;7.03;;;;;;;;;;4966356;28;20066;-71
2023/12/16 06:59:38;;;;;;;7.97;7.28;;;;;;;;;;4988600;28;20026;-72
2023/12/16 07:02:03;;;;;;;10.07;8.35;;;;;;;;;;4989131;28;20037;-71
2023/12/16 07:04:28;;;;;;;5.65;5.15;;;;;;;;;;4989737;28;20026;-72
2023/12/16 07:06:54;;;;;;;6.43;5.55;;;;;;;;;;4987739;28;20031;-72
2023/12/16 07:09:19;;;;;;;5.35;4.85;;;;;;;;;;4988625;28;20050;-71
2023/12/16 07:11:45;;;;;;;26.77;23.60;;;;;;;;;;4987450;28;20030;-71
2023/12/16 07:14:10;;;;;;;13.10;9.73;;;;;;;;;;5014314;28;20049;-70
2023/12/16 07:16:35;;;;;;;18.20;9.75;;;;;;;;;;5018325;28;20345;-70
2023/12/16 07:19:01;;;;;;;6.38;4.20;;;;;;;;;;5016693;28;20037;-70
2023/12/16 07:21:27;;;;;;;5.57;4.40;;;;;;;;;;5020572;28;20441;-70
2023/12/16 07:23:52;;;;;;;10.70;8.52;;;;;;;;;;5033100;28;20037;-71
2023/12/16 07:26:17;;;;;;;13.70;11.27;;;;;;;;;;5023716;28;20033;-71
2023/12/16 07:28:43;;;;;;;25.80;18.60;;;;;;;;;;5016983;28;20422;-71
2023/12/16 07:31:08;;;;;;;26.00;20.63;;;;;;;;;;5029663;28;20036;-72
2023/12/16 07:33:36;;;;;;;79.57;55.03;;;;;;;;;;5032186;28;20112;-70
2023/12/16 07:36:02;;;;;;;22.27;17.40;;;;;;;;;;5013943;28;20105;-71
2023/12/16 07:38:27;;;;;;;28.45;21.25;;;;;;;;;;5019479;28;20125;-72
2023/12/16 07:40:53;;;;;;;14.43;11.57;;;;;;;;;;5032652;28;20013;-71
2023/12/16 07:43:18;;;;;;;15.23;13.63;;;;;;;;;;5033326;28;20018;-71
2023/12/16 07:45:43;;;;;;;34.17;26.05;;;;;;;;;;5028563;28;20068;-72
2023/12/16 07:48:09;;;;;;;25.73;17.55;;;;;;;;;;5033423;28;20053;-71
2023/12/16 07:50:34;;;;;;;9.70;8.80;;;;;;;;;;5015088;28;20030;-71
2023/12/16 07:53:00;;;;;;;8.38;6.05;;;;;;;;;;5015400;28;20030;-72
2023/12/16 07:55:27;;;;;;;31.50;22.75;;;;;;;;;;5015267;28;20786;-73
2023/12/16 07:57:52;;;;;;;12.13;10.60;;;;;;;;;;5033309;28;20041;-72
2023/12/16 08:00:19;;;;;;;13.15;10.68;;;;;;;;;;5017674;28;20421;-70
2023/12/16 08:02:44;;;;;;;9.70;8.70;;;;;;;;;;5015251;28;20026;-71
2023/12/16 08:05:10;;;;;;;14.40;12.38;;;;;;;;;;5017455;28;20103;-73
2023/12/16 08:07:35;;;;;;;10.65;9.55;;;;;;;;;;5014977;28;20057;-71
2023/12/16 08:10:01;;;;;;;13.35;11.80;;;;;;;;;;5014974;28;20036;-70
2023/12/16 08:12:26;;;;;;;14.82;11.60;;;;;;;;;;5014937;28;20022;-71
2023/12/16 08:14:51;;;;;;;27.85;19.50;;;;;;;;;;5015109;28;20014;-70
2023/12/16 08:17:17;;;;;;;29.95;20.77;;;;;;;;;;5014857;28;20029;-71
2023/12/16 08:19:43;;;;;;;55.58;37.22;;;;;;;;;;5015199;28;20032;-73
2023/12/16 08:22:08;;;;;;;102.22;59.80;;;;;;;;;;5014745;28;20323;-73
2023/12/16 08:24:33;;;;;;;32.40;20.67;;;;;;;;;;5014826;28;20105;-73
2023/12/16 08:26:59;;;;;;;14.43;10.63;;;;;;;;;;5022092;28;20365;-71
2023/12/16 08:29:24;;;;;;;37.67;24.05;;;;;;;;;;5032711;28;20357;-71
2023/12/16 08:31:51;;;;;;;21.17;15.93;;;;;;;;;;5032575;28;20025;-73
2023/12/16 08:34:16;;;;;;;60.08;39.15;;;;;;;;;;5032386;28;20091;-73
2023/12/16 08:36:41;;;;;;;96.35;61.42;;;;;;;;;;5025711;28;20018;-73
2023/12/16 08:39:07;;;;;;;88.00;55.80;;;;;;;;;;5024226;28;20029;-72
2023/12/16 08:41:32;;;;;;;62.95;41.97;;;;;;;;;;5032299;28;20041;-71
2023/12/16 08:43:57;;;;;;;49.72;32.22;;;;;;;;;;5031727;28;20029;-72
2023/12/16 08:46:24;;;;;;;83.75;51.22;;;;;;;;;;5017962;28;20049;-72
2023/12/16 08:48:50;;;;;;;56.80;36.28;;;;;;;;;;5015993;28;20048;-72
2023/12/16 08:51:22;;;;;;;51.05;34.00;;;;;;;;;;5017978;28;20105;-72
2023/12/16 08:53:48;;;;;;;89.32;60.33;;;;;;;;;;5016993;28;20033;-73
2023/12/16 08:56:13;;;;;;;27.50;20.10;;;;;;;;;;5014383;28;20021;-70
2023/12/16 08:58:39;;;;;;;15.35;12.40;;;;;;;;;;5030427;28;20029;-71
2023/12/16 09:01:05;;;;;;;83.38;51.30;;;;;;;;;;5031698;28;20057;-72
2023/12/16 09:03:30;;;;;;;31.55;28.20;;;;;;;;;;5032208;28;20021;-71
2023/12/16 09:05:55;;;;;;;15.60;14.07;;;;;;;;;;5021685;28;20029;-72
2023/12/16 09:08:21;;;;;;;43.50;29.75;;;;;;;;;;5013898;28;20045;-73
2023/12/16 09:10:46;;;;;;;30.00;21.60;;;;;;;;;;5013960;28;20018;-72
2023/12/16 09:13:12;;;;;;;21.00;15.20;;;;;;;;;;5014273;28;20021;-72
2023/12/16 09:15:37;;;;;;;16.58;12.85;;;;;;;;;;5016190;28;20029;-73
2023/12/16 09:18:03;;;;;;;16.98;11.98;;;;;;;;;;5014638;28;20036;-73
2023/12/16 09:20:28;;;;;;;23.42;16.65;;;;;;;;;;5013547;28;20030;-73
2023/12/16 09:22:53;;;;;;;17.98;12.48;;;;;;;;;;5016607;28;20141;-73
2023/12/16 09:25:19;;;;;;;22.75;14.88;;;;;;;;;;4996570;28;20033;-71
2023/12/16 09:27:44;;;;;;;42.10;26.67;;;;;;;;;;5013901;28;20022;-72
2023/12/16 09:30:10;;;;;;;101.97;57.83;;;;;;;;;;5020431;28;20155;-71
2023/12/16 09:32:35;;;;;;;47.55;30.45;;;;;;;;;;5031448;28;20079;-71
2023/12/16 09:35:00;;;;;;;5.95;5.35;;;;;;;;;;5031269;28;20112;-73
2023/12/16 09:37:26;;;;;;;31.63;20.52;;;;;;;;;;5031550;28;20113;-72
2023/12/16 09:39:51;;;;;;;18.15;12.48;;;;;;;;;;5019814;28;20109;-71
2023/12/16 09:42:17;;;;;;;13.98;10.85;;;;;;;;;;5013443;28;20069;-73
2023/12/16 09:44:43;;;;;;;10.95;9.55;;;;;;;;;;5013854;28;20025;-72
2023/12/16 09:47:11;;;;;;;12.02;9.32;;;;;;;;;;5014259;28;20365;-73
2023/12/16 09:49:38;;;;;;;64.10;40.20;;;;;;;;;;5016776;28;20041;-73
2023/12/16 09:52:03;;;;;;;14.10;10.57;;;;;;;;;;5026068;28;20022;-72
2023/12/16 09:54:29;;;;;;;12.88;9.82;;;;;;;;;;5030867;28;20024;-71
2023/12/16 09:56:55;;;;;;;29.50;21.02;;;;;;;;;;5031213;28;20029;-70
2023/12/16 09:59:21;;;;;;;23.65;17.10;;;;;;;;;;5031636;28;20022;-72
2023/12/16 10:01:51;;;;;;;14.77;11.93;;;;;;;;;;5031301;28;20032;-73
2023/12/16 10:04:17;;;;;;;39.95;26.02;;;;;;;;;;5025976;28;20018;-73
2023/12/16 10:06:42;;;;;;;139.07;85.03;;;;;;;;;;5013235;28;20440;-73
2023/12/16 10:09:08;;;;;;;20.67;16.05;;;;;;;;;;5013443;28;20050;-73
2023/12/16 10:11:40;;;;;;;139.65;82.30;;;;;;;;;;5026074;28;20175;-73
2023/12/16 10:14:05;;;;;;;108.18;66.18;;;;;;;;;;5030925;28;20022;-73
2023/12/16 10:16:31;;;;;;;58.28;37.90;;;;;;;;;;5030235;28;20021;-73
2023/12/16 10:18:57;;;;;;;68.75;42.15;;;;;;;;;;5021738;28;20029;-71
2023/12/16 10:21:26;;;;;;;33.17;24.80;;;;;;;;;;5020333;28;20145;-73
2023/12/16 10:23:59;;;;;;;34.83;26.40;;;;;;;;;;5020667;28;20112;-73
2023/12/16 10:26:25;;;;;;;22.58;17.35;;;;;;;;;;5020724;28;20029;-70
2023/12/16 10:28:50;;;;;;;16.33;14.57;;;;;;;;;;5020470;28;20060;-71
2023/12/16 10:31:18;;;;;;;18.85;14.52;;;;;;;;;;5021009;28;20426;-72
2023/12/16 10:33:43;;;;;;;34.22;20.92;;;;;;;;;;5020953;28;20029;-73
2023/12/16 10:36:11;;;;;;;13.27;10.75;;;;;;;;;;5021609;28;20338;-71
2023/12/16 10:38:36;;;;;;;9.40;8.50;;;;;;;;;;5020940;28;20049;-75
2023/12/16 10:41:02;;;;;;;12.32;10.80;;;;;;;;;;5021685;28;20026;-72
2023/12/16 10:43:27;;;;;;;16.92;13.85;;;;;;;;;;5020644;28;20201;-73
2023/12/16 10:45:53;;;;;;;27.15;21.92;;;;;;;;;;5019614;28;20451;-73
2023/12/16 10:48:20;;;;;;;49.25;33.00;;;;;;;;;;5020883;28;20064;-74
2023/12/16 10:50:47;;;;;;;43.28;29.83;;;;;;;;;;5019509;28;20060;-73
2023/12/16 10:53:18;;;;;;;42.80;31.30;;;;;;;;;;5019555;28;20029;-73
2023/12/16 10:55:44;;;;;;;24.60;16.80;;;;;;;;;;5020811;28;20065;-72
2023/12/16 10:58:21;;;;;;;15.20;12.10;;;;;;;;;;5020251;28;20099;-73
2023/12/16 11:00:48;;;;;;;13.25;11.90;;;;;;;;;;5020635;28;20064;-72
2023/12/16 11:03:19;;;;;;;9.70;8.70;;;;;;;;;;5020564;28;20497;-73
2023/12/16 11:05:48;;;;;;;10.05;8.07;;;;;;;;;;5020784;28;20394;-72
2023/12/16 11:08:14;;;;;;;14.05;11.10;;;;;;;;;;5023509;28;20371;-72
2023/12/16 11:10:41;;;;;;;7.10;6.40;;;;;;;;;;5024461;28;20111;-71
2023/12/16 11:13:07;;;;;;;7.07;6.38;;;;;;;;;;5024496;28;20357;-71
2023/12/16 11:15:34;;;;;;;7.97;7.28;;;;;;;;;;5023066;28;20329;-73
2023/12/16 11:18:17;;;;;;;6.35;5.75;;;;;;;;;;5022975;28;20029;-72
2023/12/16 11:20:43;;;;;;;8.10;7.30;;;;;;;;;;5023738;28;20037;-76
2023/12/16 11:23:10;;;;;;;6.30;5.70;;;;;;;;;;5023148;28;20051;-75
2023/12/16 11:25:35;;;;;;;8.10;7.40;;;;;;;;;;5023970;28;20079;-73
2023/12/16 11:28:01;;;;;;;7.43;6.72;;;;;;;;;;5023956;28;20037;-74
2023/12/16 11:30:29;;;;;;;12.05;10.85;;;;;;;;;;5024180;28;20057;-73
2023/12/16 11:32:55;;;;;;;7.55;6.85;;;;;;;;;;5023563;28;20120;-71
2023/12/16 11:35:36;;;;;;;7.80;7.15;;;;;;;;;;5011567;28;20021;-73
2023/12/16 11:38:08;;;;;;;9.82;8.90;;;;;;;;;;5023693;28;20116;-73
2023/12/16 11:40:43;;;;;;;8.57;7.78;;;;;;;;;;5023235;28;20033;-75
2023/12/16 11:43:09;;;;;;;7.32;6.63;;;;;;;;;;5022322;28;20029;-74
2023/12/16 11:45:37;;;;;;;7.63;7.03;;;;;;;;;;5023798;28;20033;-72
2023/12/16 11:48:07;;;;;;;8.27;7.57;;;;;;;;;;5023811;28;20029;-74
2023/12/16 11:50:42;;;;;;;8.52;7.70;;;;;;;;;;5024232;28;20030;-72
2023/12/16 11:53:09;;;;;;;7.47;6.78;;;;;;;;;;5023527;28;20048;-73
2023/12/16 11:55:35;;;;;;;8.10;7.45;;;;;;;;;;5022811;28;20485;-72
2023/12/16 11:58:00;;;;;;;10.55;9.60;;;;;;;;;;5023876;28;20025;-72
2023/12/16 12:00:26;;;;;;;10.57;9.52;;;;;;;;;;5024133;28;20139;-73
2023/12/16 12:02:51;;;;;;;12.15;11.00;;;;;;;;;;5023530;28;20156;-71
2023/12/16 12:05:17;;;;;;;14.02;12.63;;;;;;;;;;5024414;28;20025;-73
2023/12/16 12:07:43;;;;;;;18.98;17.17;;;;;;;;;;5023838;28;20084;-71
2023/12/16 12:10:09;;;;;;;22.55;20.30;;;;;;;;;;5023239;28;20132;-72
2023/12/16 12:12:34;;;;;;;26.48;23.65;;;;;;;;;;5023541;28;20075;-72
2023/12/16 12:15:00;;;;;;;24.83;22.10;;;;;;;;;;5022846;28;20517;-72
2023/12/16 12:17:26;;;;;;;32.20;28.02;;;;;;;;;;5014712;28;20094;-73
2023/12/16 12:19:51;;;;;;;28.48;23.02;;;;;;;;;;5023861;28;20033;-72
2023/12/16 12:22:19;;;;;;;24.23;20.85;;;;;;;;;;5023242;28;20294;-75
2023/12/16 12:24:44;;;;;;;32.30;24.30;;;;;;;;;;5022326;28;20029;-74
2023/12/16 12:27:10;;;;;;;42.20;30.75;;;;;;;;;;5022120;28;20052;-72
2023/12/16 12:30:01;;;;;;;43.03;33.60;;;;;;;;;;5022095;28;20112;-74
2023/12/16 12:32:28;;;;;;;66.20;44.75;;;;;;;;;;5021350;28;20033;-76
2023/12/16 12:35:04;;;;;;;36.10;31.63;;;;;;;;;;5022821;28;20418;-72
2023/12/16 12:37:36;;;;;;;31.67;28.27;;;;;;;;;;5022015;28;20104;-73
2023/12/16 12:40:02;;;;;;;39.28;28.88;;;;;;;;;;5021516;28;20025;-73
2023/12/16 12:42:27;;;;;;;23.35;20.85;;;;;;;;;;5021807;28;20044;-72
2023/12/16 12:44:53;;;;;;;27.85;24.63;;;;;;;;;;5021828;28;20425;-72
2023/12/16 12:47:28;;;;;;;22.17;19.55;;;;;;;;;;5022280;28;20100;-73
2023/12/16 12:49:54;;;;;;;21.48;19.38;;;;;;;;;;5022247;28;20041;-71
2023/12/16 12:52:19;;;;;;;22.00;19.70;;;;;;;;;;5022129;28;20076;-73
2023/12/16 12:54:45;;;;;;;19.65;17.55;;;;;;;;;;5020938;28;20452;-72
2023/12/16 12:57:20;;;;;;;18.42;16.63;;;;;;;;;;5021902;28;20333;-71
2023/12/16 12:59:45;;;;;;;16.33;14.73;;;;;;;;;;5022162;28;20374;-74
2023/12/16 13:02:11;;;;;;;17.52;15.73;;;;;;;;;;5021266;28;20032;-72
2023/12/16 13:04:36;;;;;;;17.52;15.88;;;;;;;;;;5022459;28;20034;-74
2023/12/16 13:07:02;;;;;;;22.65;20.33;;;;;;;;;;5020782;28;20032;-77
2023/12/16 13:09:29;;;;;;;19.23;17.33;;;;;;;;;;5022230;28;20049;-73
2023/12/16 13:11:55;;;;;;;19.98;18.00;;;;;;;;;;5020905;28;20112;-72
2023/12/16 13:14:20;;;;;;;22.80;20.05;;;;;;;;;;5022688;28;20220;-73
2023/12/16 13:16:45;;;;;;;26.35;23.60;;;;;;;;;;5022173;28;20034;-73
2023/12/16 13:19:11;;;;;;;23.15;20.85;;;;;;;;;;5021568;28;20394;-73
2023/12/16 13:21:37;;;;;;;22.55;20.20;;;;;;;;;;5021587;28;20075;-72
2023/12/16 13:24:02;;;;;;;22.10;19.65;;;;;;;;;;5022613;28;20076;-73
2023/12/16 13:26:28;;;;;;;19.70;17.80;;;;;;;;;;5022403;28;21105;-74
2023/12/16 13:28:53;;;;;;;18.15;16.45;;;;;;;;;;5021930;28;20467;-73
2023/12/16 13:31:18;;;;;;;16.75;15.15;;;;;;;;;;5021221;28;20324;-72
2023/12/16 13:33:44;;;;;;;18.60;16.98;;;;;;;;;;5021231;28;21007;-71
2023/12/16 13:36:09;;;;;;;15.85;13.70;;;;;;;;;;5021210;28;20380;-72
2023/12/16 13:38:35;;;;;;;13.82;12.52;;;;;;;;;;5021816;28;20068;-73
2023/12/16 13:41:00;;;;;;;16.33;14.73;;;;;;;;;;5021299;28;20033;-72
2023/12/16 13:43:25;;;;;;;15.98;14.48;;;;;;;;;;5020886;28;20018;-73
2023/12/16 13:45:51;;;;;;;19.55;17.65;;;;;;;;;;5020997;28;20033;-72
2023/12/16 13:48:16;;;;;;;19.48;17.48;;;;;;;;;;5021321;28;20157;-73
2023/12/16 13:50:41;;;;;;;20.67;18.48;;;;;;;;;;5021636;28;20435;-72
2023/12/16 13:53:07;;;;;;;22.75;20.35;;;;;;;;;;5021928;28;20673;-72
2023/12/16 13:55:32;;;;;;;25.08;22.48;;;;;;;;;;5020281;28;20055;-71
2023/12/16 13:57:57;;;;;;;27.92;24.88;;;;;;;;;;5021835;28;20029;-74
2023/12/16 14:00:23;;;;;;;32.53;28.30;;;;;;;;;;5021947;28;20033;-72
2023/12/16 14:02:48;;;;;;;24.98;21.80;;;;;;;;;;5020710;28;20083;-71
2023/12/16 14:05:13;;;;;;;27.23;24.15;;;;;;;;;;5020451;28;20018;-71
2023/12/16 14:07:39;;;;;;;28.88;24.98;;;;;;;;;;5021041;28;20472;-71
2023/12/16 14:10:04;;;;;;;28.95;25.83;;;;;;;;;;5021237;28;20047;-71
2023/12/16 14:12:30;;;;;;;28.40;25.40;;;;;;;;;;5021559;28;20432;-72
2023/12/16 14:14:55;;;;;;;20.88;18.67;;;;;;;;;;5021419;28;20108;-72
2023/12/16 14:17:20;;;;;;;23.17;20.77;;;;;;;;;;5021216;28;20112;-72
2023/12/16 14:19:46;;;;;;;39.40;33.05;;;;;;;;;;5020928;28;20086;-71
2023/12/16 14:22:11;;;;;;;32.03;28.73;;;;;;;;;;5020880;28;20445;-73
2023/12/16 14:24:37;;;;;;;26.70;24.00;;;;;;;;;;5020928;28;20449;-71